createdAt,value
2022-07-29T00:01:08.887Z,60.66
2022-07-29T00:03:46.950Z,60.50
2022-07-29T00:06:15.094Z,61.11
2022-07-29T00:08:42.391Z,60.21
2022-07-29T00:11:09.788Z,59.46
2022-07-29T00:13:37.065Z,60.26
2022-07-29T00:16:05.051Z,61.16
2022-07-29T00:18:32.976Z,59.07
2022-07-29T00:21:00.889Z,60.41
2022-07-29T00:23:28.167Z,59.48
2022-07-29T00:25:55.511Z,60.15
2022-07-29T00:28:22.777Z,59.55
2022-07-29T00:30:50.083Z,59.68
2022-07-29T00:33:17.446Z,60.71
2022-07-29T00:35:44.730Z,59.66
2022-07-29T00:38:12.902Z,60.84
2022-07-29T00:40:40.553Z,60.03
2022-07-29T00:43:12.195Z,59.67
2022-07-29T00:45:39.535Z,59.15
2022-07-29T00:48:07.563Z,59.65
2022-07-29T00:50:34.877Z,59.49
2022-07-29T00:53:03.436Z,59.47
2022-07-29T00:55:30.779Z,59.74
2022-07-29T00:57:59.155Z,60.05
2022-07-29T01:00:28.109Z,59.80
2022-07-29T01:02:55.503Z,59.08
2022-07-29T01:05:24.171Z,60.48
2022-07-29T01:07:53.521Z,60.00
2022-07-29T01:10:22.087Z,59.74
2022-07-29T01:12:51.131Z,60.25
2022-07-29T01:15:18.508Z,59.75
2022-07-29T01:17:52.666Z,59.43
2022-07-29T01:20:32.603Z,59.11
2022-07-29T01:22:59.831Z,59.44
2022-07-29T01:25:27.242Z,59.51
2022-07-29T01:28:04.554Z,60.41
2022-07-29T01:30:33.431Z,59.66
2022-07-29T01:33:03.973Z,59.66
2022-07-29T01:35:49.238Z,59.65
2022-07-29T01:38:23.213Z,59.98
2022-07-29T01:40:52.367Z,59.88
2022-07-29T01:43:28.486Z,60.97
2022-07-29T01:46:02.395Z,60.16
2022-07-29T01:48:36.070Z,59.65
2022-07-29T01:51:03.321Z,59.53
2022-07-29T01:53:37.715Z,60.64
2022-07-29T01:56:07.553Z,60.42
2022-07-29T01:58:36.971Z,60.85
2022-07-29T02:01:05.187Z,60.88
2022-07-29T02:03:33.544Z,60.92
2022-07-29T02:06:02.594Z,60.80
2022-07-29T02:08:31.495Z,61.26
2022-07-29T02:10:59.578Z,61.45
2022-07-29T02:13:27.701Z,61.08
2022-07-29T02:15:56.813Z,60.74
2022-07-29T02:18:26.141Z,60.78
2022-07-29T02:20:54.995Z,61.20
2022-07-29T02:23:23.994Z,62.03
2022-07-29T02:25:53.843Z,61.94
2022-07-29T02:28:23.094Z,61.61
2022-07-29T02:30:51.524Z,62.33
2022-07-29T02:33:19.575Z,61.45
2022-07-29T02:35:48.120Z,61.78
2022-07-29T02:38:35.437Z,62.20
2022-07-29T02:41:05.454Z,62.57
2022-07-29T02:43:33.873Z,62.59
2022-07-29T02:46:01.864Z,62.67
2022-07-29T02:48:34.303Z,63.12
2022-07-29T02:51:43.400Z,62.98
2022-07-29T02:54:08.537Z,62.50
2022-07-29T02:56:36.117Z,62.74
2022-07-29T02:59:05.186Z,62.55
2022-07-29T03:01:33.772Z,62.83
2022-07-29T03:04:02.519Z,62.59
2022-07-29T03:06:38.322Z,63.36
2022-07-29T03:09:12.981Z,62.78
2022-07-29T03:11:49.582Z,62.98
2022-07-29T03:14:19.357Z,63.19
2022-07-29T03:16:47.794Z,64.75
2022-07-29T03:19:15.528Z,63.59
2022-07-29T03:21:42.850Z,63.95
2022-07-29T03:24:10.781Z,64.53
2022-07-29T03:26:38.546Z,64.10
2022-07-29T03:29:05.918Z,64.68
2022-07-29T03:31:34.371Z,64.06
2022-07-29T03:34:01.631Z,64.56
2022-07-29T03:36:28.911Z,64.30
2022-07-29T03:38:56.847Z,64.72
2022-07-29T03:41:25.621Z,65.09
2022-07-29T03:43:53.770Z,65.53
2022-07-29T03:46:23.645Z,65.77
2022-07-29T03:48:53.941Z,64.71
2022-07-29T03:51:33.481Z,64.91
2022-07-29T03:54:14.090Z,66.90
2022-07-29T03:56:43.214Z,64.86
2022-07-29T03:59:11.501Z,65.20
2022-07-29T04:01:39.833Z,66.65
2022-07-29T04:04:07.284Z,64.91
2022-07-29T04:06:41.499Z,63.91
2022-07-29T04:09:09.760Z,64.58
2022-07-29T04:11:56.974Z,66.10
2022-07-29T04:14:26.379Z,64.88
2022-07-29T04:16:54.086Z,64.90
2022-07-29T04:19:21.364Z,65.15
2022-07-29T04:21:48.627Z,65.25
2022-07-29T04:24:16.250Z,65.78
2022-07-29T04:26:44.769Z,65.45
2022-07-29T04:29:12.956Z,65.71
2022-07-29T04:31:40.292Z,65.27
2022-07-29T04:34:07.862Z,65.17
2022-07-29T04:36:35.140Z,65.73
2022-07-29T04:39:02.410Z,66.11
2022-07-29T04:41:33.390Z,65.28
2022-07-29T04:44:06.917Z,65.84
2022-07-29T04:46:34.956Z,65.99
2022-07-29T04:49:03.443Z,65.90
2022-07-29T04:51:30.807Z,64.75
2022-07-29T04:53:58.143Z,65.74
2022-07-29T04:56:25.417Z,66.35
2022-07-29T04:58:52.720Z,65.44
2022-07-29T05:01:20.270Z,64.73
2022-07-29T05:03:47.635Z,65.87
2022-07-29T05:06:15.130Z,66.14
2022-07-29T05:08:42.447Z,66.59
2022-07-29T05:11:11.727Z,66.18
2022-07-29T05:13:45.756Z,65.77
2022-07-29T05:16:14.514Z,67.07
2022-07-29T05:18:42.256Z,66.22
2022-07-29T05:21:09.537Z,64.58
2022-07-29T05:23:36.901Z,65.14
2022-07-29T05:26:04.249Z,65.96
2022-07-29T05:28:34.857Z,64.28
2022-07-29T05:31:02.198Z,64.92
2022-07-29T05:33:35.633Z,65.93
2022-07-29T05:36:06.618Z,64.49
2022-07-29T05:38:34.445Z,65.39
2022-07-29T05:41:01.898Z,65.59
2022-07-29T05:43:29.641Z,64.39
2022-07-29T05:45:57.714Z,64.88
2022-07-29T05:48:25.297Z,64.72
2022-07-29T05:50:52.581Z,63.89
2022-07-29T05:53:20.825Z,63.25
2022-07-29T05:55:48.889Z,63.75
2022-07-29T05:58:16.358Z,63.55
2022-07-29T06:00:43.616Z,64.13
2022-07-29T06:03:10.972Z,62.63
2022-07-29T06:05:38.404Z,62.95
2022-07-29T06:08:08.154Z,61.70
2022-07-29T06:10:36.236Z,61.80
2022-07-29T06:13:03.640Z,61.29
2022-07-29T06:15:30.980Z,61.78
2022-07-29T06:18:00.126Z,61.56
2022-07-29T06:20:32.101Z,61.32
2022-07-29T06:23:00.197Z,60.92
2022-07-29T06:25:30.245Z,60.55
2022-07-29T06:27:58.419Z,60.68
2022-07-29T06:30:25.815Z,60.06
2022-07-29T06:32:53.404Z,59.94
2022-07-29T06:35:38.666Z,59.68
2022-07-29T06:38:16.026Z,59.76
2022-07-29T06:41:01.139Z,58.40
2022-07-29T06:43:35.982Z,58.65
2022-07-29T06:46:19.556Z,59.35
2022-07-29T06:48:48.547Z,58.33
2022-07-29T06:51:16.369Z,58.24
2022-07-29T06:53:59.958Z,58.07
2022-07-29T06:56:39.084Z,59.09
2022-07-29T06:59:08.162Z,57.35
2022-07-29T07:01:36.790Z,57.60
2022-07-29T07:04:04.169Z,57.64
2022-07-29T07:06:31.442Z,57.78
2022-07-29T07:08:58.803Z,57.14
2022-07-29T07:11:26.126Z,56.38
2022-07-29T07:13:53.473Z,57.77
2022-07-29T07:16:20.797Z,57.04
2022-07-29T07:18:48.139Z,56.46
2022-07-29T07:21:19.116Z,55.86
2022-07-29T07:23:47.200Z,57.01
2022-07-29T07:26:14.548Z,56.41
2022-07-29T07:28:41.850Z,55.58
2022-07-29T07:31:09.323Z,56.42
2022-07-29T07:33:36.611Z,53.67
2022-07-29T07:36:04.466Z,55.06
2022-07-29T07:38:31.713Z,54.41
2022-07-29T07:40:59.054Z,54.89
2022-07-29T07:43:26.332Z,54.37
2022-07-29T07:45:53.867Z,54.07
2022-07-29T07:48:21.459Z,53.90
2022-07-29T07:50:50.347Z,53.96
2022-07-29T07:53:17.785Z,53.86
2022-07-29T07:56:09.511Z,53.25
2022-07-29T07:58:32.543Z,54.29
2022-07-29T08:00:59.838Z,53.13
2022-07-29T08:03:27.195Z,52.57
2022-07-29T08:05:55.325Z,51.59
2022-07-29T08:08:22.633Z,52.68
2022-07-29T08:11:00.653Z,50.84
2022-07-29T08:13:31.406Z,52.20
2022-07-29T08:16:00.760Z,52.09
2022-07-29T08:18:29.725Z,51.45
2022-07-29T08:20:57.682Z,51.34
2022-07-29T08:23:25.255Z,50.83
2022-07-29T08:25:54.916Z,50.80
2022-07-29T08:28:25.809Z,50.53
2022-07-29T08:30:53.522Z,50.80
2022-07-29T08:33:20.792Z,50.28
2022-07-29T08:35:48.106Z,49.73
2022-07-29T08:38:15.375Z,48.70
2022-07-29T08:40:42.682Z,49.38
2022-07-29T08:43:09.991Z,48.93
2022-07-29T08:45:48.454Z,49.69
2022-07-29T08:48:17.247Z,49.07
2022-07-29T08:50:46.382Z,49.53
2022-07-29T08:53:15.923Z,47.48
2022-07-29T08:55:47.687Z,48.82
2022-07-29T08:58:15.911Z,48.54
2022-07-29T09:00:45.210Z,48.52
2022-07-29T09:03:21.618Z,47.82
2022-07-29T09:05:49.319Z,45.34
2022-07-29T09:08:17.447Z,46.85
2022-07-29T09:10:45.147Z,47.53
2022-07-29T09:13:12.550Z,49.11
2022-07-29T09:15:39.934Z,46.56
2022-07-29T09:18:07.238Z,46.51
2022-07-29T09:21:00.522Z,45.97
2022-07-29T09:23:27.790Z,45.57
2022-07-29T09:25:55.154Z,46.37
2022-07-29T09:28:24.702Z,45.42
2022-07-29T09:30:56.500Z,46.33
2022-07-29T09:33:24.197Z,43.93
2022-07-29T09:36:03.272Z,45.06
2022-07-29T09:38:31.486Z,46.24
2022-07-29T09:40:59.911Z,44.69
2022-07-29T09:43:33.570Z,45.18
2022-07-29T09:46:13.750Z,44.26
2022-07-29T09:48:41.220Z,42.43
2022-07-29T09:51:24.246Z,44.42
2022-07-29T09:53:55.754Z,44.41
2022-07-29T09:56:41.936Z,43.04
2022-07-29T09:59:09.985Z,43.30
2022-07-29T10:01:37.286Z,41.97
2022-07-29T10:04:04.653Z,42.44
2022-07-29T10:06:32.029Z,42.15
2022-07-29T10:09:10.153Z,41.74
2022-07-29T10:11:48.813Z,42.95
2022-07-29T10:14:17.236Z,42.10
2022-07-29T10:16:44.579Z,42.48
2022-07-29T10:19:11.853Z,41.38
2022-07-29T10:21:40.796Z,41.83
2022-07-29T10:24:15.021Z,41.97
2022-07-29T10:26:43.099Z,41.13
2022-07-29T10:29:10.573Z,42.23
2022-07-29T10:31:51.089Z,41.88
2022-07-29T10:34:24.734Z,42.33
2022-07-29T10:37:08.607Z,41.34
2022-07-29T10:39:44.616Z,40.98
2022-07-29T10:42:16.860Z,41.36
2022-07-29T10:44:44.786Z,41.66
2022-07-29T10:47:21.143Z,41.66
2022-07-29T10:49:57.170Z,41.54
2022-07-29T10:52:30.234Z,41.39
2022-07-29T10:54:59.590Z,41.55
2022-07-29T10:57:54.178Z,41.01
2022-07-29T11:00:16.857Z,41.10
2022-07-29T11:05:52.540Z,40.90
2022-07-29T11:08:26.467Z,41.05
2022-07-29T11:11:17.521Z,41.02
2022-07-29T11:13:46.421Z,39.97
2022-07-29T11:16:16.012Z,40.54
2022-07-29T11:19:02.077Z,39.69
2022-07-29T11:21:54.706Z,40.09
2022-07-29T11:27:18.252Z,40.68
2022-07-29T11:29:51.279Z,40.59
2022-07-29T11:32:22.760Z,40.47
2022-07-29T11:35:17.169Z,40.68
2022-07-29T11:37:52.224Z,40.84
2022-07-29T11:40:23.000Z,40.93
2022-07-29T11:42:52.254Z,40.96
2022-07-29T11:45:43.639Z,40.56
2022-07-29T11:48:31.491Z,40.66
2022-07-29T11:51:00.638Z,39.71
2022-07-29T11:53:29.020Z,40.07
2022-07-29T11:56:00.456Z,38.99
2022-07-29T11:58:29.412Z,39.50
2022-07-29T12:00:57.763Z,39.10
2022-07-29T12:03:32.898Z,39.40
2022-07-29T12:06:04.096Z,38.56
2022-07-29T12:08:31.569Z,38.54
2022-07-29T12:10:58.962Z,38.69
2022-07-29T12:13:37.421Z,36.83
2022-07-29T12:16:05.485Z,37.99
2022-07-29T12:18:33.210Z,37.34
2022-07-29T12:21:03.691Z,38.15
2022-07-29T12:23:34.957Z,37.56
2022-07-29T12:26:07.668Z,38.01
2022-07-29T12:28:39.284Z,37.02
2022-07-29T12:31:06.644Z,38.47
2022-07-29T12:33:36.174Z,38.43
2022-07-29T12:36:07.261Z,40.08
2022-07-29T12:38:36.864Z,38.27
2022-07-29T12:41:04.935Z,38.17
2022-07-29T12:43:32.645Z,37.77
2022-07-29T12:46:12.307Z,38.24
2022-07-29T12:48:41.009Z,38.98
2022-07-29T12:51:09.791Z,37.45
2022-07-29T12:53:37.495Z,37.76
2022-07-29T12:56:20.634Z,37.25
2022-07-29T12:58:53.103Z,37.66
2022-07-29T13:01:21.179Z,36.34
2022-07-29T13:03:57.491Z,36.71
2022-07-29T13:06:46.163Z,37.18
2022-07-29T13:09:20.883Z,36.47
2022-07-29T13:11:49.293Z,37.38
2022-07-29T13:14:35.188Z,37.19
2022-07-29T13:17:16.756Z,37.78
2022-07-29T13:19:44.010Z,37.20
2022-07-29T13:22:12.231Z,37.71
2022-07-29T13:25:11.968Z,37.66
2022-07-29T13:27:40.540Z,37.45
2022-07-29T13:30:08.941Z,37.05
2022-07-29T13:32:37.291Z,37.09
2022-07-29T13:35:06.241Z,37.16
2022-07-29T13:37:35.740Z,37.28
2022-07-29T13:40:04.279Z,36.87
2022-07-29T13:42:32.774Z,37.26
2022-07-29T13:45:00.685Z,36.72
2022-07-29T13:47:32.232Z,36.07
2022-07-29T13:50:05.140Z,37.47
2022-07-29T13:52:34.345Z,36.34
2022-07-29T13:55:01.899Z,36.29
2022-07-29T13:57:29.361Z,37.30
2022-07-29T13:59:56.958Z,35.67
2022-07-29T14:02:25.869Z,36.81
2022-07-29T14:04:56.280Z,36.62
2022-07-29T14:07:23.763Z,37.00
2022-07-29T14:09:51.248Z,37.31
2022-07-29T14:12:18.875Z,36.74
2022-07-29T14:14:47.383Z,36.30
2022-07-29T14:17:15.250Z,36.47
2022-07-29T14:19:42.655Z,36.55
2022-07-29T14:22:10.691Z,36.40
2022-07-29T14:24:38.910Z,36.77
2022-07-29T14:27:07.553Z,36.99
2022-07-29T14:29:38.253Z,36.63
2022-07-29T14:32:06.443Z,35.67
2022-07-29T14:34:34.966Z,36.77
2022-07-29T14:37:03.751Z,36.30
2022-07-29T14:39:31.681Z,36.46
2022-07-29T14:42:00.238Z,36.87
2022-07-29T14:44:32.103Z,35.59
2022-07-29T14:47:00.763Z,35.92
2022-07-29T14:49:28.210Z,36.08
2022-07-29T14:51:55.661Z,36.07
2022-07-29T14:54:23.718Z,35.89
2022-07-29T14:56:51.906Z,35.88
2022-07-29T14:59:19.956Z,34.10
2022-07-29T15:01:47.250Z,35.54
2022-07-29T15:04:14.499Z,35.31
2022-07-29T15:06:41.964Z,34.49
2022-07-29T15:09:09.307Z,33.02
2022-07-29T15:11:38.255Z,33.57
2022-07-29T15:14:06.874Z,33.68
2022-07-29T15:16:36.575Z,34.31
2022-07-29T15:19:04.288Z,32.42
2022-07-29T15:21:31.688Z,32.91
2022-07-29T15:23:58.999Z,34.25
2022-07-29T15:26:26.491Z,33.36
2022-07-29T15:28:53.809Z,32.62
2022-07-29T15:31:21.098Z,33.54
2022-07-29T15:33:48.664Z,34.43
2022-07-29T15:36:42.212Z,33.76
2022-07-29T15:39:03.394Z,33.45
2022-07-29T15:41:30.709Z,34.19
2022-07-29T15:43:57.987Z,34.30
2022-07-29T15:46:43.871Z,32.72
2022-07-29T15:49:11.272Z,33.51
2022-07-29T15:51:38.585Z,32.53
2022-07-29T15:54:06.028Z,33.80
2022-07-29T15:56:33.381Z,34.23
2022-07-29T15:59:00.937Z,34.57
2022-07-29T16:01:28.343Z,34.32
2022-07-29T16:03:56.084Z,34.62
2022-07-29T16:06:24.618Z,34.73
2022-07-29T16:08:51.894Z,34.82
2022-07-29T16:11:19.134Z,34.96
2022-07-29T16:13:46.402Z,34.49
2022-07-29T16:16:13.948Z,35.07
2022-07-29T16:18:41.238Z,34.89
2022-07-29T16:21:08.517Z,34.88
2022-07-29T16:23:35.789Z,34.88
2022-07-29T16:26:03.155Z,34.45
2022-07-29T16:28:30.900Z,35.10
2022-07-29T16:30:58.247Z,34.08
2022-07-29T16:33:25.526Z,33.78
2022-07-29T16:35:52.841Z,33.23
2022-07-29T16:38:20.470Z,32.94
2022-07-29T16:40:47.756Z,32.27
2022-07-29T16:43:15.170Z,31.74
2022-07-29T16:45:46.032Z,31.49
2022-07-29T16:48:14.338Z,31.59
2022-07-29T16:50:43.370Z,31.44
2022-07-29T16:53:11.108Z,31.45
2022-07-29T16:55:38.814Z,31.28
2022-07-29T16:58:10.139Z,31.66
2022-07-29T17:00:37.626Z,32.37
2022-07-29T17:03:05.525Z,32.29
2022-07-29T17:05:52.392Z,32.42
2022-07-29T17:08:20.184Z,33.46
2022-07-29T17:10:47.580Z,35.06
2022-07-29T17:13:15.010Z,35.82
2022-07-29T17:15:45.318Z,37.24
2022-07-29T17:18:13.193Z,37.99
2022-07-29T17:20:41.045Z,38.42
2022-07-29T17:23:08.390Z,38.81
2022-07-29T17:25:35.830Z,40.53
2022-07-29T17:28:03.254Z,41.01
2022-07-29T17:30:30.563Z,40.60
2022-07-29T17:32:57.867Z,40.67
2022-07-29T17:35:45.652Z,41.99
2022-07-29T17:38:13.063Z,42.51
2022-07-29T17:40:40.350Z,42.49
2022-07-29T17:43:09.293Z,41.63
2022-07-29T17:45:48.698Z,42.84
2022-07-29T17:48:18.885Z,43.10
2022-07-29T17:50:47.225Z,42.98
2022-07-29T17:53:16.389Z,44.62
2022-07-29T17:55:45.722Z,43.87
2022-07-29T17:58:13.240Z,44.89
2022-07-29T18:00:40.681Z,43.94
2022-07-29T18:03:08.082Z,45.73
2022-07-29T18:05:35.418Z,45.27
2022-07-29T18:08:02.674Z,44.80
2022-07-29T18:10:30.346Z,45.55
2022-07-29T18:12:57.836Z,45.76
2022-07-29T18:15:25.305Z,46.65
2022-07-29T18:17:52.905Z,45.75
2022-07-29T18:20:28.306Z,46.56
2022-07-29T18:22:55.583Z,46.39
2022-07-29T18:25:23.655Z,47.61
2022-07-29T18:27:51.153Z,47.59
2022-07-29T18:30:19.278Z,46.48
2022-07-29T18:33:04.929Z,47.67
2022-07-29T18:35:34.043Z,47.64
2022-07-29T18:38:03.120Z,46.89
2022-07-29T18:40:30.858Z,47.50
2022-07-29T18:42:58.163Z,47.28
2022-07-29T18:45:28.638Z,47.69
2022-07-29T18:47:56.656Z,48.72
2022-07-29T18:50:28.907Z,48.57
2022-07-29T18:52:58.794Z,48.64
2022-07-29T18:55:26.843Z,48.29
2022-07-29T18:57:56.633Z,48.18
2022-07-29T19:00:25.259Z,48.62
2022-07-29T19:02:52.890Z,48.67
2022-07-29T19:05:20.811Z,48.68
2022-07-29T19:07:48.153Z,48.72
2022-07-29T19:10:15.580Z,48.12
2022-07-29T19:12:43.071Z,48.50
2022-07-29T19:15:10.831Z,47.80
2022-07-29T19:17:38.778Z,48.35
2022-07-29T19:20:07.211Z,48.06
2022-07-29T19:22:34.907Z,47.65
2022-07-29T19:25:02.214Z,48.24
2022-07-29T19:27:29.638Z,48.38
2022-07-29T19:29:59.417Z,48.64
2022-07-29T19:32:26.922Z,47.85
2022-07-29T19:35:12.933Z,47.85
2022-07-29T19:37:40.272Z,48.68
2022-07-29T19:40:07.689Z,48.19
2022-07-29T19:42:35.054Z,48.52
2022-07-29T19:45:02.336Z,49.07
2022-07-29T19:47:29.610Z,48.30
2022-07-29T19:49:56.878Z,48.46
2022-07-29T19:52:24.131Z,48.14
2022-07-29T19:54:51.513Z,48.33
2022-07-29T19:57:19.164Z,48.70
2022-07-29T19:59:46.420Z,49.29
2022-07-29T20:02:13.814Z,49.30
2022-07-29T20:04:42.883Z,49.35
2022-07-29T20:07:10.227Z,49.45
2022-07-29T20:09:40.012Z,49.52
2022-07-29T20:12:10.397Z,49.79
2022-07-29T20:14:37.774Z,49.35
2022-07-29T20:17:05.157Z,49.81
2022-07-29T20:19:33.237Z,50.86
2022-07-29T20:22:00.545Z,50.99
2022-07-29T20:24:27.890Z,50.35
2022-07-29T20:26:55.244Z,50.72
2022-07-29T20:29:22.718Z,50.93
2022-07-29T20:31:53.255Z,50.95
2022-07-29T20:34:23.733Z,51.07
2022-07-29T20:36:51.047Z,51.08
2022-07-29T20:39:18.406Z,51.02
2022-07-29T20:41:45.655Z,51.18
2022-07-29T20:44:12.984Z,52.60
2022-07-29T20:46:40.421Z,52.47
2022-07-29T20:49:08.284Z,52.63
2022-07-29T20:51:43.336Z,52.46
2022-07-29T20:54:11.785Z,52.45
2022-07-29T20:56:39.616Z,53.44
2022-07-29T20:59:07.333Z,53.88
2022-07-29T21:01:35.148Z,52.77
2022-07-29T21:04:03.068Z,53.39
2022-07-29T21:06:30.489Z,52.52
2022-07-29T21:08:59.646Z,54.60
2022-07-29T21:11:43.445Z,54.23
2022-07-29T21:14:31.729Z,54.20
2022-07-29T21:16:59.269Z,53.73
2022-07-29T21:19:26.828Z,55.54
2022-07-29T21:21:54.180Z,53.81
2022-07-29T21:24:21.446Z,53.62
2022-07-29T21:27:10.918Z,53.44
2022-07-29T21:29:36.021Z,53.98
2022-07-29T21:32:03.418Z,54.06
2022-07-29T21:34:30.709Z,54.70
2022-07-29T21:36:58.002Z,54.38
2022-07-29T21:39:25.420Z,54.15
2022-07-29T21:41:52.674Z,54.71
2022-07-29T21:44:21.774Z,54.29
2022-07-29T21:46:49.456Z,54.53
2022-07-29T21:49:16.874Z,54.94
2022-07-29T21:51:44.276Z,54.89
2022-07-29T21:54:11.752Z,54.83
2022-07-29T21:56:39.022Z,55.23
2022-07-29T21:59:09.613Z,55.04
2022-07-29T22:01:39.066Z,55.56
2022-07-29T22:04:06.893Z,55.19
2022-07-29T22:06:34.649Z,54.49
2022-07-29T22:09:01.922Z,54.58
2022-07-29T22:11:29.294Z,55.53
2022-07-29T22:13:56.761Z,54.89
2022-07-29T22:16:24.060Z,55.92
2022-07-29T22:18:51.380Z,55.76
2022-07-29T22:21:18.691Z,55.44
2022-07-29T22:23:45.953Z,56.04
2022-07-29T22:26:13.282Z,55.44
2022-07-29T22:28:40.621Z,55.50
2022-07-29T22:31:08.012Z,55.46
2022-07-29T22:33:35.367Z,56.29
2022-07-29T22:36:02.662Z,56.27
2022-07-29T22:38:29.950Z,56.53
2022-07-29T22:41:00.588Z,56.13
2022-07-29T22:43:28.886Z,56.47
2022-07-29T22:45:56.220Z,56.83
2022-07-29T22:48:23.519Z,55.79
2022-07-29T22:50:50.765Z,56.41
2022-07-29T22:53:18.039Z,56.66
2022-07-29T22:55:45.905Z,56.92
2022-07-29T22:58:13.197Z,56.70
2022-07-29T23:00:41.213Z,57.31
2022-07-29T23:03:08.535Z,57.24
2022-07-29T23:05:35.910Z,56.78
2022-07-29T23:08:03.331Z,57.05
2022-07-29T23:10:30.650Z,57.51
2022-07-29T23:12:58.017Z,57.82
2022-07-29T23:15:25.296Z,57.73
2022-07-29T23:17:52.546Z,57.48
2022-07-29T23:20:19.834Z,58.00
2022-07-29T23:22:47.166Z,57.49
2022-07-29T23:25:14.659Z,57.43
2022-07-29T23:27:41.915Z,57.56
2022-07-29T23:30:09.446Z,57.42
2022-07-29T23:32:36.779Z,57.83
2022-07-29T23:35:05.590Z,58.04
2022-07-29T23:37:33.686Z,58.03
2022-07-29T23:40:00.962Z,58.61
2022-07-29T23:42:28.231Z,58.51
2022-07-29T23:44:55.496Z,58.77
2022-07-29T23:47:23.005Z,58.12
2022-07-29T23:49:50.333Z,58.63
2022-07-29T23:52:17.794Z,58.52
2022-07-29T23:54:45.096Z,58.88
2022-07-29T23:57:12.360Z,58.83
2022-07-29T23:59:39.719Z,58.75
